Time;durP1;ratioP1;P1;durP2;ratioP2;P2;SDS_P1;SDS_P2;PMS_P1;PMS_P2;Temp;Humidity;BMP_temperature;BMP_pressure;BME280_temperature;BME280_humidity;BME280_pressure;Samples;Min_cycle;Max_cycle;Signal;HPM_P1;HPM_P2
2021/05/31 00:00:23;;;;;;;34.08;19.35;;;7.80;99.90;;;;;;5010787;28;20026;-83
2021/05/31 00:02:48;;;;;;;29.92;19.10;;;7.80;99.90;;;;;;5010741;28;20018;-83
2021/05/31 00:05:17;;;;;;;32.85;19.33;;;7.70;99.90;;;;;;5010441;28;20399;-83
2021/05/31 00:07:44;;;;;;;31.88;19.38;;;7.70;99.90;;;;;;5010733;28;20503;-82
2021/05/31 00:10:10;;;;;;;28.05;18.35;;;7.70;99.90;;;;;;5011711;28;20080;-83
2021/05/31 00:12:36;;;;;;;27.63;16.85;;;7.70;99.90;;;;;;5012024;28;20026;-83
2021/05/31 00:15:08;;;;;;;25.52;14.27;;;7.50;99.90;;;;;;5011416;28;20026;-83
2021/05/31 00:17:35;;;;;;;38.78;17.00;;;7.50;99.90;;;;;;5010027;28;20037;-82
2021/05/31 00:20:00;;;;;;;40.65;16.95;;;7.40;99.90;;;;;;5010567;28;20068;-83
2021/05/31 00:22:26;;;;;;;32.30;17.10;;;7.40;99.90;;;;;;5014115;28;20096;-83
2021/05/31 00:24:52;;;;;;;36.10;16.45;;;7.40;99.90;;;;;;5015326;28;20116;-83
2021/05/31 00:27:18;;;;;;;21.27;12.93;;;7.30;99.90;;;;;;5014162;28;20314;-83
2021/05/31 00:29:44;;;;;;;24.25;12.15;;;7.30;99.90;;;;;;5014335;28;20030;-82
2021/05/31 00:32:10;;;;;;;20.73;11.77;;;7.30;99.90;;;;;;5030735;28;20030;-83
2021/05/31 00:34:37;;;;;;;18.05;11.93;;;7.40;99.90;;;;;;5013765;28;20038;-83
2021/05/31 00:37:04;;;;;;;18.83;10.35;;;7.40;99.90;;;;;;5014158;28;20037;-83
2021/05/31 00:39:30;;;;;;;20.05;10.68;;;7.30;99.90;;;;;;5013936;28;20022;-83
2021/05/31 00:41:56;;;;;;;15.57;10.20;;;7.30;99.90;;;;;;5014166;28;20037;-83
2021/05/31 00:44:22;;;;;;;24.13;11.38;;;7.30;99.90;;;;;;5013793;28;20478;-82
2021/05/31 00:46:49;;;;;;;25.00;11.85;;;7.30;99.90;;;;;;5030186;28;20030;-83
2021/05/31 00:49:18;;;;;;;18.23;10.27;;;7.20;99.90;;;;;;5015352;28;20018;-82
2021/05/31 00:51:44;;;;;;;15.85;9.45;;;7.20;99.90;;;;;;5015345;28;20094;-82
2021/05/31 00:54:10;;;;;;;15.30;9.60;;;7.20;99.90;;;;;;5013354;28;20029;-83
2021/05/31 00:56:38;;;;;;;15.07;9.30;;;7.20;99.90;;;;;;5013782;28;20029;-83
2021/05/31 00:59:03;;;;;;;13.13;9.52;;;7.20;99.90;;;;;;5014795;28;20021;-83
2021/05/31 01:01:29;;;;;;;15.32;9.00;;;7.10;99.90;;;;;;5013863;28;20394;-82
2021/05/31 01:03:54;;;;;;;14.90;9.02;;;7.20;99.90;;;;;;5013578;28;20049;-83
2021/05/31 01:06:23;;;;;;;15.15;10.40;;;7.10;99.90;;;;;;5014298;28;20121;-82
2021/05/31 01:09:02;;;;;;;19.58;12.68;;;7.10;99.90;;;;;;5013633;28;20048;-83
2021/05/31 01:11:42;;;;;;;21.50;11.50;;;7.10;99.90;;;;;;5015140;28;20589;-83
2021/05/31 01:14:26;;;;;;;19.73;12.52;;;7.20;99.90;;;;;;5013375;28;20030;-82
2021/05/31 01:17:01;;;;;;;21.92;12.15;;;7.10;99.90;;;;;;5013148;28;20021;-82
2021/05/31 01:19:51;;;;;;;25.35;12.52;;;7.10;99.90;;;;;;5013584;28;20060;-83
2021/05/31 01:22:19;;;;;;;18.50;12.15;;;7.10;99.90;;;;;;5013445;28;20026;-82
2021/05/31 01:24:52;;;;;;;22.40;12.93;;;7.00;99.90;;;;;;5012906;28;20034;-83
2021/05/31 01:27:32;;;;;;;24.27;13.23;;;7.00;99.90;;;;;;5013210;28;20026;-82
2021/05/31 01:30:03;;;;;;;18.98;11.43;;;6.90;99.90;;;;;;5014530;28;20109;-83
2021/05/31 01:32:46;;;;;;;22.17;10.85;;;6.90;99.90;;;;;;5029202;28;20638;-82
2021/05/31 01:35:15;;;;;;;30.85;13.93;;;6.90;99.90;;;;;;5012725;28;20080;-81
2021/05/31 01:37:42;;;;;;;32.58;17.20;;;6.90;99.90;;;;;;5013075;28;20502;-82
2021/05/31 01:40:10;;;;;;;35.40;17.83;;;6.90;99.90;;;;;;5012783;28;20053;-82
2021/05/31 01:42:36;;;;;;;28.60;15.65;;;6.90;99.90;;;;;;5014326;28;20018;-83
2021/05/31 01:45:04;;;;;;;45.92;16.50;;;6.90;99.90;;;;;;5012360;28;20022;-83
2021/05/31 01:47:30;;;;;;;25.17;14.98;;;6.90;99.90;;;;;;5012893;28;20125;-82
2021/05/31 01:49:56;;;;;;;21.35;15.00;;;6.90;99.90;;;;;;5014189;28;20034;-83
2021/05/31 01:52:23;;;;;;;26.90;16.88;;;6.80;99.90;;;;;;5013014;28;20037;-82
2021/05/31 01:54:52;;;;;;;25.67;17.25;;;6.80;99.90;;;;;;5013576;28;20030;-82
2021/05/31 01:57:18;;;;;;;25.17;17.42;;;6.80;99.90;;;;;;5013892;28;20542;-82
2021/05/31 01:59:44;;;;;;;32.92;19.50;;;6.80;99.90;;;;;;5012670;28;20525;-83
2021/05/31 02:02:09;;;;;;;35.03;18.95;;;6.80;99.90;;;;;;5012671;28;20121;-82
2021/05/31 02:04:35;;;;;;;33.50;19.23;;;6.80;99.90;;;;;;5013427;28;20030;-82
2021/05/31 02:07:01;;;;;;;33.92;21.75;;;6.80;99.90;;;;;;5012568;28;20034;-82
2021/05/31 02:09:26;;;;;;;27.48;18.80;;;6.70;99.90;;;;;;5012036;28;20403;-82
2021/05/31 02:12:13;;;;;;;31.02;18.60;;;6.70;99.90;;;;;;5013842;28;20588;-82
2021/05/31 02:14:58;;;;;;;23.77;15.50;;;6.60;99.90;;;;;;5012043;28;20398;-82
2021/05/31 02:17:43;;;;;;;18.35;12.73;;;6.60;99.90;;;;;;4994078;28;20045;-82
2021/05/31 02:20:11;;;;;;;25.08;13.77;;;6.50;99.90;;;;;;4992780;28;20022;-83
2021/05/31 02:22:46;;;;;;;23.42;12.52;;;6.50;99.90;;;;;;5025530;28;20117;-83
2021/05/31 02:25:13;;;;;;;30.25;15.18;;;6.50;99.90;;;;;;5003911;28;20056;-83
2021/05/31 02:27:39;;;;;;;26.42;15.63;;;6.50;99.90;;;;;;5013351;28;20030;-84
2021/05/31 02:30:07;;;;;;;23.02;16.02;;;6.40;99.90;;;;;;5013424;28;20105;-84
2021/05/31 02:32:33;;;;;;;28.58;15.40;;;6.40;99.90;;;;;;5012100;28;20030;-83
2021/05/31 02:34:59;;;;;;;24.52;14.82;;;6.40;99.90;;;;;;5010596;28;20110;-83
2021/05/31 02:37:33;;;;;;;26.88;16.15;;;6.50;99.90;;;;;;5010867;28;20041;-83
2021/05/31 02:39:58;;;;;;;22.73;14.50;;;6.50;99.90;;;;;;5011799;28;20033;-84
2021/05/31 02:42:24;;;;;;;22.02;13.48;;;6.50;99.90;;;;;;5013237;28;20022;-84
2021/05/31 02:44:49;;;;;;;18.50;11.75;;;6.50;99.90;;;;;;5010626;28;20029;-84
2021/05/31 02:47:15;;;;;;;22.23;13.73;;;6.50;99.90;;;;;;5011934;28;20030;-83
2021/05/31 02:49:41;;;;;;;18.50;12.25;;;6.50;99.90;;;;;;5011728;28;20036;-81
2021/05/31 02:52:06;;;;;;;18.55;12.95;;;6.40;99.90;;;;;;5013052;28;20502;-83
2021/05/31 02:54:32;;;;;;;18.80;12.85;;;6.30;99.90;;;;;;5011283;28;20038;-83
2021/05/31 02:56:57;;;;;;;20.13;12.90;;;6.40;99.90;;;;;;5011586;28;20030;-84
2021/05/31 02:59:23;;;;;;;18.30;12.40;;;6.40;99.90;;;;;;5011697;28;20022;-83
2021/05/31 03:01:48;;;;;;;20.70;12.68;;;6.40;99.90;;;;;;5012973;28;20029;-84
2021/05/31 03:04:14;;;;;;;17.77;12.07;;;6.30;99.90;;;;;;5011293;28;20033;-84
2021/05/31 03:06:40;;;;;;;22.58;12.48;;;6.30;99.90;;;;;;5011174;28;20030;-84
2021/05/31 03:09:05;;;;;;;19.50;12.95;;;6.30;99.90;;;;;;5011177;28;20079;-84
2021/05/31 03:11:31;;;;;;;24.05;13.85;;;6.30;99.90;;;;;;5012715;28;20030;-84
2021/05/31 03:13:56;;;;;;;30.27;14.88;;;6.20;99.90;;;;;;5011163;28;20109;-83
2021/05/31 03:16:22;;;;;;;37.95;14.95;;;6.30;99.90;;;;;;5010961;28;20026;-83
2021/05/31 03:18:47;;;;;;;43.03;12.80;;;6.30;99.90;;;;;;5012490;28;20105;-83
2021/05/31 03:21:13;;;;;;;18.08;12.50;;;6.30;99.90;;;;;;5012556;28;20026;-84
2021/05/31 03:23:39;;;;;;;19.23;11.35;;;6.30;99.90;;;;;;5011217;28;20030;-83
2021/05/31 03:26:05;;;;;;;14.68;10.88;;;6.30;99.90;;;;;;5010898;28;20402;-83
2021/05/31 03:28:30;;;;;;;14.30;9.88;;;6.30;99.90;;;;;;5011223;28;20057;-84
2021/05/31 03:30:56;;;;;;;13.05;10.13;;;6.40;99.90;;;;;;5011204;28;20026;-83
2021/05/31 03:33:21;;;;;;;11.57;9.05;;;6.40;99.90;;;;;;5012173;28;20483;-83
2021/05/31 03:35:47;;;;;;;12.10;8.82;;;6.30;99.90;;;;;;5010517;28;20036;-83
2021/05/31 03:38:13;;;;;;;11.75;8.93;;;6.30;99.90;;;;;;5010931;28;20022;-83
2021/05/31 03:40:38;;;;;;;13.80;10.18;;;6.30;99.90;;;;;;5010706;28;20029;-83
2021/05/31 03:43:04;;;;;;;10.10;8.75;;;6.30;99.90;;;;;;5011099;28;20033;-83
2021/05/31 03:45:29;;;;;;;17.35;10.30;;;6.30;99.90;;;;;;5027162;28;20552;-83
2021/05/31 03:47:55;;;;;;;13.07;10.98;;;6.40;99.90;;;;;;5012251;28;20026;-83
2021/05/31 03:50:21;;;;;;;11.93;10.35;;;6.40;99.90;;;;;;5012250;28;20382;-83
2021/05/31 03:52:49;;;;;;;12.98;10.10;;;6.50;99.90;;;;;;5012212;28;20032;-83
2021/05/31 03:55:15;;;;;;;20.90;11.25;;;6.50;99.90;;;;;;5011203;28;20051;-83
2021/05/31 03:57:41;;;;;;;17.33;12.30;;;6.50;99.90;;;;;;5018548;28;20018;-83
2021/05/31 04:00:09;;;;;;;17.90;11.60;;;6.60;99.90;;;;;;5018712;28;20026;-83
2021/05/31 04:02:38;;;;;;;16.60;11.43;;;6.60;99.90;;;;;;5017233;28;20112;-83
2021/05/31 04:05:05;;;;;;;20.25;14.35;;;6.70;99.90;;;;;;5016932;28;20060;-83
2021/05/31 04:12:59;;;;;;;25.83;14.00;;;6.90;99.90;;;;;;5018563;28;19964;-83
2021/05/31 04:15:25;;;;;;;35.05;17.13;;;7.00;99.90;;;;;;5016861;28;20038;-83
2021/05/31 04:17:50;;;;;;;26.60;14.98;;;7.00;99.90;;;;;;5017262;28;20029;-83
2021/05/31 04:20:16;;;;;;;23.77;15.25;;;7.10;99.90;;;;;;5017235;28;20065;-83
2021/05/31 04:22:42;;;;;;;69.97;15.93;;;7.20;99.90;;;;;;5017234;28;20025;-83
2021/05/31 04:25:09;;;;;;;24.02;14.57;;;7.30;99.90;;;;;;5016773;28;20052;-83
2021/05/31 04:27:34;;;;;;;16.63;13.65;;;7.40;99.90;;;;;;5018313;28;20026;-83
2021/05/31 04:30:00;;;;;;;27.30;15.75;;;7.40;99.90;;;;;;5018289;28;20478;-82
2021/05/31 04:32:26;;;;;;;15.77;12.32;;;7.50;99.90;;;;;;5018351;28;20032;-83
2021/05/31 04:34:51;;;;;;;28.25;13.68;;;7.60;99.90;;;;;;5017740;28;20462;-83
2021/05/31 04:37:17;;;;;;;13.88;11.90;;;7.70;99.90;;;;;;5018190;28;20053;-83
2021/05/31 04:39:43;;;;;;;15.95;12.43;;;7.70;99.90;;;;;;5016744;28;20026;-83
2021/05/31 04:42:09;;;;;;;20.17;12.32;;;7.80;99.90;;;;;;5018180;28;20095;-83
2021/05/31 04:44:35;;;;;;;24.20;12.43;;;7.90;99.90;;;;;;5018321;28;20026;-83
2021/05/31 04:47:01;;;;;;;16.65;12.55;;;7.90;99.90;;;;;;5033232;28;20141;-83
2021/05/31 04:49:26;;;;;;;31.75;15.32;;;8.00;99.90;;;;;;5016944;28;20487;-82
2021/05/31 04:51:52;;;;;;;22.30;16.13;;;8.00;99.90;;;;;;5018184;28;20097;-83
2021/05/31 04:54:18;;;;;;;25.70;17.48;;;8.10;99.90;;;;;;5016342;28;20030;-83
2021/05/31 04:56:44;;;;;;;28.05;18.85;;;8.10;99.90;;;;;;5016702;28;20398;-83
2021/05/31 04:59:10;;;;;;;26.05;17.90;;;8.20;99.90;;;;;;5016856;28;20026;-83
2021/05/31 05:01:35;;;;;;;26.00;17.33;;;8.30;99.90;;;;;;5016949;28;20026;-82
2021/05/31 05:04:02;;;;;;;24.05;17.55;;;8.40;99.90;;;;;;5017898;28;20026;-83
2021/05/31 05:06:28;;;;;;;20.60;15.20;;;8.50;99.90;;;;;;5016433;28;20040;-83
2021/05/31 05:08:54;;;;;;;20.05;15.02;;;8.60;99.90;;;;;;5012819;28;20026;-83
2021/05/31 05:11:21;;;;;;;17.60;14.25;;;8.60;99.90;;;;;;5013267;28;20486;-83
2021/05/31 05:13:48;;;;;;;22.42;12.45;;;8.70;99.90;;;;;;5014723;28;20117;-83
2021/05/31 05:16:13;;;;;;;15.32;12.93;;;8.80;99.90;;;;;;5014510;28;20053;-83
2021/05/31 05:18:47;;;;;;;14.70;13.05;;;8.80;99.90;;;;;;5013463;28;20514;-83
2021/05/31 05:21:16;;;;;;;16.40;13.63;;;8.80;99.90;;;;;;5014831;28;20402;-83
2021/05/31 05:23:42;;;;;;;20.48;13.73;;;8.90;99.90;;;;;;5013248;28;20060;-83
2021/05/31 05:26:11;;;;;;;17.60;13.77;;;9.10;99.90;;;;;;5013063;28;20380;-83
2021/05/31 05:28:38;;;;;;;19.45;14.15;;;9.20;99.90;;;;;;5013250;28;20095;-83
2021/05/31 05:31:07;;;;;;;19.90;13.45;;;9.40;99.90;;;;;;5013340;28;20560;-83
2021/05/31 05:33:34;;;;;;;16.30;13.52;;;9.40;99.90;;;;;;5011115;28;20080;-83
2021/05/31 05:36:14;;;;;;;22.40;15.50;;;9.60;99.90;;;;;;5006280;28;20071;-85
2021/05/31 05:41:37;;;;;;;20.58;14.35;;;10.00;99.90;;;;;;5009910;28;20080;-83
2021/05/31 05:46:52;;;;;;;18.52;14.20;;;10.30;99.90;;;;;;5009203;28;20040;-84
2021/05/31 05:49:18;;;;;;;19.75;14.52;;;10.50;99.90;;;;;;5008324;28;20411;-85
2021/05/31 05:51:43;;;;;;;29.52;18.15;;;10.70;99.90;;;;;;5008385;28;20026;-85
2021/05/31 05:54:09;;;;;;;28.20;17.67;;;10.90;99.90;;;;;;5007951;28;20026;-84
2021/05/31 05:56:34;;;;;;;33.00;20.40;;;11.10;99.90;;;;;;5004002;28;20034;-85
2021/05/31 05:59:01;;;;;;;31.20;19.15;;;11.40;99.90;;;;;;5009335;28;20018;-84
2021/05/31 06:01:27;;;;;;;29.70;19.45;;;11.50;99.90;;;;;;5006504;28;20032;-83
2021/05/31 06:03:54;;;;;;;25.05;18.58;;;11.80;99.90;;;;;;5008347;28;20053;-83
2021/05/31 06:06:21;;;;;;;29.90;19.08;;;12.00;99.90;;;;;;5009624;28;20034;-82
2021/05/31 06:08:47;;;;;;;33.47;18.38;;;12.20;99.90;;;;;;5011627;28;20053;-84
2021/05/31 06:11:12;;;;;;;34.80;22.27;;;12.30;99.90;;;;;;5009223;28;20037;-85
2021/05/31 06:13:41;;;;;;;37.72;23.92;;;12.50;99.90;;;;;;5009372;28;20030;-84
2021/05/31 06:16:07;;;;;;;45.92;25.27;;;12.70;99.90;;;;;;5008252;28;20030;-84
2021/05/31 06:18:33;;;;;;;38.08;23.42;;;13.00;99.90;;;;;;5008037;28;20022;-85
2021/05/31 06:20:59;;;;;;;33.00;22.13;;;13.20;99.90;;;;;;5007525;28;20026;-85
2021/05/31 06:23:24;;;;;;;37.30;22.63;;;13.30;99.90;;;;;;5008647;28;20029;-82
2021/05/31 06:25:50;;;;;;;33.63;21.13;;;13.60;99.90;;;;;;5007075;28;20527;-86
2021/05/31 06:28:16;;;;;;;24.92;17.17;;;13.70;99.90;;;;;;5007914;28;20053;-86
2021/05/31 06:30:42;;;;;;;33.55;18.15;;;14.00;99.90;;;;;;5007976;28;20064;-85
2021/05/31 06:33:08;;;;;;;20.27;14.50;;;14.30;99.90;;;;;;5009082;28;20506;-85
2021/05/31 06:35:35;;;;;;;27.63;16.00;;;14.40;99.90;;;;;;5007299;28;20048;-84
2021/05/31 06:38:02;;;;;;;26.50;16.30;;;14.80;99.90;;;;;;5007491;28;20034;-84
2021/05/31 06:40:27;;;;;;;23.27;15.32;;;15.00;99.90;;;;;;5007091;28;20033;-87
2021/05/31 06:42:56;;;;;;;29.52;15.45;;;15.30;99.90;;;;;;5011239;28;20022;-87
2021/05/31 06:45:25;;;;;;;21.90;14.98;;;15.40;99.90;;;;;;5011514;28;20030;-87
2021/05/31 06:47:52;;;;;;;18.77;13.07;;;15.70;99.90;;;;;;5026825;28;20079;-87
2021/05/31 06:50:18;;;;;;;32.17;15.05;;;15.90;99.90;;;;;;5012897;28;20028;-85
2021/05/31 06:52:44;;;;;;;16.27;12.10;;;16.10;99.90;;;;;;5012850;28;20422;-84
2021/05/31 06:55:10;;;;;;;22.75;14.13;;;16.40;99.90;;;;;;5011246;28;20034;-85
2021/05/31 06:57:36;;;;;;;19.30;11.93;;;16.40;99.90;;;;;;5012671;28;20092;-84
2021/05/31 07:00:06;;;;;;;23.27;13.48;;;16.50;99.90;;;;;;5011578;28;20022;-85
2021/05/31 07:02:31;;;;;;;24.33;13.23;;;16.50;99.90;;;;;;5011635;28;20021;-85
2021/05/31 07:04:57;;;;;;;16.10;11.45;;;16.70;99.90;;;;;;5010884;28;20068;-85
2021/05/31 07:07:22;;;;;;;20.25;12.07;;;17.00;99.90;;;;;;5012692;28;20030;-86
2021/05/31 07:09:48;;;;;;;13.90;8.68;;;17.20;99.90;;;;;;5010702;28;20109;-85
2021/05/31 07:12:15;;;;;;;15.55;9.48;;;17.40;99.90;;;;;;5011410;28;20056;-85
2021/05/31 07:14:46;;;;;;;19.20;11.55;;;17.50;99.90;;;;;;5010836;28;20026;-85
2021/05/31 07:17:15;;;;;;;16.33;10.35;;;17.60;99.90;;;;;;4991767;28;20072;-85
2021/05/31 07:19:44;;;;;;;22.30;11.88;;;17.50;99.90;;;;;;4991550;28;20025;-85
2021/05/31 07:22:15;;;;;;;22.98;11.27;;;17.60;99.90;;;;;;4991746;28;20041;-84
2021/05/31 07:24:41;;;;;;;19.23;11.20;;;17.70;99.90;;;;;;4996623;28;20026;-85
2021/05/31 07:27:07;;;;;;;19.75;11.93;;;17.60;99.90;;;;;;5027601;28;20112;-84
2021/05/31 07:29:33;;;;;;;19.63;10.98;;;17.90;99.90;;;;;;5011118;28;20060;-84
2021/05/31 07:31:58;;;;;;;23.48;11.77;;;17.90;99.90;;;;;;5007122;28;20057;-84
2021/05/31 07:34:24;;;;;;;22.73;12.88;;;18.00;99.90;;;;;;4993871;28;20031;-84
2021/05/31 07:36:50;;;;;;;17.33;10.73;;;18.00;99.90;;;;;;4992659;28;20038;-85
2021/05/31 07:39:15;;;;;;;19.80;10.80;;;18.30;99.90;;;;;;4993435;28;20023;-84
2021/05/31 07:41:41;;;;;;;17.02;10.13;;;18.00;99.90;;;;;;5012127;28;20022;-84
2021/05/31 07:44:07;;;;;;;14.95;10.30;;;18.20;99.90;;;;;;5009922;28;20096;-84
2021/05/31 07:46:32;;;;;;;21.17;9.75;;;18.40;99.90;;;;;;5010543;28;20471;-83
2021/05/31 07:49:00;;;;;;;18.88;9.43;;;18.70;99.90;;;;;;5010202;28;20032;-86
2021/05/31 07:51:33;;;;;;;20.95;10.43;;;19.20;99.90;;;;;;5010572;28;20152;-86
2021/05/31 07:54:04;;;;;;;22.90;10.63;;;19.40;99.90;;;;;;5010108;28;20072;-85
2021/05/31 07:56:32;;;;;;;18.02;10.02;;;19.50;99.90;;;;;;5026246;28;20034;-84
2021/05/31 07:59:01;;;;;;;15.90;10.23;;;19.50;99.90;;;;;;5008232;28;20398;-86
2021/05/31 08:01:40;;;;;;;17.25;9.23;;;19.60;99.90;;;;;;5009484;28;20486;-85
2021/05/31 08:04:08;;;;;;;13.38;7.95;;;19.60;99.90;;;;;;5010307;28;20029;-85
2021/05/31 08:06:34;;;;;;;17.08;8.82;;;19.90;99.90;;;;;;5010675;28;20399;-82
2021/05/31 08:09:01;;;;;;;18.75;9.70;;;20.30;99.90;;;;;;5010193;28;20165;-84
2021/05/31 08:11:38;;;;;;;13.02;9.55;;;20.40;99.90;;;;;;5010477;28;20030;-84
2021/05/31 08:14:12;;;;;;;12.27;7.15;;;20.40;99.90;;;;;;5006905;28;20117;-84
2021/05/31 08:16:38;;;;;;;13.35;8.90;;;20.70;99.90;;;;;;5026969;28;20097;-84
2021/05/31 08:19:06;;;;;;;16.00;9.10;;;20.80;99.90;;;;;;5009752;28;20625;-85
2021/05/31 08:21:32;;;;;;;16.63;8.82;;;20.90;99.90;;;;;;5010353;28;20107;-85
2021/05/31 08:24:00;;;;;;;16.55;9.15;;;20.80;99.90;;;;;;5010258;28;20504;-84
2021/05/31 08:26:26;;;;;;;17.17;8.77;;;21.10;99.90;;;;;;5011644;28;21795;-84
2021/05/31 08:28:52;;;;;;;18.05;10.48;;;21.20;99.90;;;;;;5011837;28;20022;-84
2021/05/31 08:31:17;;;;;;;19.25;9.15;;;21.40;99.90;;;;;;5011719;28;20028;-84
2021/05/31 08:33:43;;;;;;;19.15;8.38;;;21.30;99.90;;;;;;5010206;28;20164;-86
2021/05/31 08:36:09;;;;;;;16.52;8.55;;;21.30;99.90;;;;;;5011059;28;20033;-84
2021/05/31 08:38:35;;;;;;;17.38;8.93;;;21.40;99.90;;;;;;5011951;28;20504;-83
2021/05/31 08:41:01;;;;;;;15.90;8.75;;;21.40;99.90;;;;;;5010098;28;20026;-83
2021/05/31 08:43:27;;;;;;;14.85;7.85;;;21.30;99.90;;;;;;5013815;28;20029;-83
2021/05/31 08:45:54;;;;;;;13.27;8.20;;;21.50;99.90;;;;;;5013705;28;20055;-83
2021/05/31 08:48:22;;;;;;;15.13;9.23;;;21.60;99.90;;;;;;5015355;28;20022;-83
2021/05/31 08:50:47;;;;;;;16.38;8.57;;;21.90;99.90;;;;;;5015315;28;20053;-83
2021/05/31 08:53:13;;;;;;;17.08;8.93;;;21.80;99.90;;;;;;5013957;28;20026;-82
2021/05/31 08:55:39;;;;;;;14.80;8.73;;;21.80;99.90;;;;;;5014690;28;20022;-82
2021/05/31 08:58:05;;;;;;;16.00;7.82;;;21.90;99.90;;;;;;5015361;28;20022;-82
2021/05/31 09:00:35;;;;;;;13.43;7.90;;;22.00;99.90;;;;;;5014984;28;20037;-81
2021/05/31 09:03:08;;;;;;;15.52;8.63;;;22.20;99.90;;;;;;5013628;28;20117;-81
2021/05/31 09:05:37;;;;;;;21.83;7.85;;;22.20;99.90;;;;;;5007135;28;20086;-81
2021/05/31 09:08:08;;;;;;;18.08;7.95;;;22.20;99.90;;;;;;5005915;28;20022;-81
2021/05/31 09:10:43;;;;;;;11.68;7.43;;;22.30;99.90;;;;;;5012215;28;20030;-81
2021/05/31 09:13:10;;;;;;;12.45;7.00;;;22.40;99.90;;;;;;4994213;28;20030;-81
2021/05/31 09:15:35;;;;;;;11.35;6.93;;;22.30;99.90;;;;;;4992295;28;20072;-81
2021/05/31 09:18:01;;;;;;;12.95;7.68;;;22.50;99.90;;;;;;5011206;28;20030;-82
2021/05/31 09:20:27;;;;;;;13.73;6.63;;;22.60;99.90;;;;;;5028247;28;20525;-81
2021/05/31 09:22:55;;;;;;;10.23;6.70;;;22.60;99.90;;;;;;5013320;28;20030;-81
2021/05/31 09:25:30;;;;;;;16.88;6.65;;;22.60;99.90;;;;;;5011730;28;20494;-81
2021/05/31 09:27:58;;;;;;;14.50;7.25;;;22.50;99.90;;;;;;5011683;28;20041;-80
2021/05/31 09:30:44;;;;;;;15.70;6.93;;;22.50;99.90;;;;;;5013570;28;20516;-83
2021/05/31 09:33:14;;;;;;;10.82;5.30;;;22.40;99.90;;;;;;5012294;28;20100;-81
2021/05/31 09:35:44;;;;;;;7.65;4.32;;;22.30;99.90;;;;;;5012779;28;20171;-81
2021/05/31 09:38:13;;;;;;;9.07;4.38;;;22.30;99.90;;;;;;5013011;28;20037;-81
2021/05/31 09:40:48;;;;;;;9.07;3.78;;;22.70;99.90;;;;;;5012979;28;20502;-81
2021/05/31 09:43:16;;;;;;;12.98;4.35;;;22.90;99.90;;;;;;5012034;28;20025;-81
2021/05/31 09:45:48;;;;;;;10.63;4.57;;;23.00;99.90;;;;;;5011977;28;20779;-81
2021/05/31 09:48:14;;;;;;;7.20;3.47;;;23.40;99.90;;;;;;5012741;28;20030;-81
2021/05/31 09:50:40;;;;;;;11.30;4.55;;;23.60;99.90;;;;;;5014164;28;20117;-82
2021/05/31 09:53:12;;;;;;;9.77;4.30;;;23.70;99.90;;;;;;5013830;28;20074;-83
2021/05/31 09:55:41;;;;;;;15.55;5.55;;;23.70;99.90;;;;;;5013590;28;20109;-82
2021/05/31 09:58:08;;;;;;;16.27;6.22;;;23.60;99.90;;;;;;5012780;28;20049;-84
2021/05/31 10:00:34;;;;;;;11.95;5.55;;;23.40;99.90;;;;;;5009824;28;20053;-84
2021/05/31 10:03:19;;;;;;;11.25;6.38;;;23.50;99.90;;;;;;5010765;28;20072;-83
2021/05/31 10:05:59;;;;;;;10.20;6.15;;;23.50;99.90;;;;;;5009325;28;20030;-83
2021/05/31 10:10:51;;;;;;;10.30;5.40;;;23.20;99.90;;;;;;5010047;28;20461;-84
2021/05/31 10:13:18;;;;;;;13.05;5.88;;;23.30;99.90;;;;;;5011924;28;20045;-83
2021/05/31 10:15:44;;;;;;;11.75;6.10;;;23.30;99.90;;;;;;5011883;28;20018;-83
2021/05/31 10:18:13;;;;;;;13.88;5.85;;;23.40;99.90;;;;;;5010912;28;20532;-84
2021/05/31 10:20:39;;;;;;;12.70;5.32;;;23.40;99.90;;;;;;5012563;28;20639;-84
2021/05/31 10:23:07;;;;;;;13.82;6.10;;;23.40;99.90;;;;;;5012214;28;20040;-85
2021/05/31 10:25:35;;;;;;;10.20;5.28;;;23.30;99.90;;;;;;5011848;28;20402;-80
2021/05/31 10:28:08;;;;;;;19.40;7.03;;;23.60;99.90;;;;;;5011931;28;20040;-83
2021/05/31 10:30:46;;;;;;;11.80;5.17;;;23.50;99.90;;;;;;5012224;28;20033;-84
2021/05/31 10:33:20;;;;;;;10.82;5.38;;;23.50;99.90;;;;;;5011860;28;20060;-85
2021/05/31 10:35:46;;;;;;;11.82;5.57;;;23.60;99.90;;;;;;5012001;28;20061;-85
2021/05/31 10:38:15;;;;;;;14.05;5.90;;;23.40;99.90;;;;;;5028639;28;20025;-89
2021/05/31 10:40:44;;;;;;;8.43;5.65;;;23.20;99.90;;;;;;5011971;28;20109;-87
2021/05/31 10:43:14;;;;;;;10.73;4.78;;;23.30;99.90;;;;;;5012092;28;20490;-88
2021/05/31 10:45:41;;;;;;;8.85;4.55;;;23.50;99.90;;;;;;5011991;28;20025;-87
2021/05/31 10:48:15;;;;;;;11.13;4.65;;;23.60;99.90;;;;;;5011814;28;20022;-86
2021/05/31 10:50:58;;;;;;;12.27;5.22;;;23.40;99.90;;;;;;5011459;28;20033;-86
2021/05/31 10:53:30;;;;;;;7.15;4.57;;;23.30;99.90;;;;;;5011781;28;20026;-87
2021/05/31 10:56:11;;;;;;;7.50;4.70;;;23.40;99.90;;;;;;5011435;28;20065;-87
2021/05/31 10:58:47;;;;;;;8.75;4.88;;;23.60;99.90;;;;;;5011683;28;20441;-87
2021/05/31 11:01:18;;;;;;;10.38;4.32;;;23.70;99.90;;;;;;5011313;28;20036;-82
2021/05/31 11:03:51;;;;;;;10.35;4.38;;;23.70;99.90;;;;;;5011484;28;20033;-84
2021/05/31 11:06:21;;;;;;;;;;;24.00;99.90;;;;;;5011329;28;20490;-85
2021/05/31 11:09:03;;;;;;;13.43;4.03;;;24.10;99.90;;;;;;5027788;28;19909;-84
2021/05/31 11:11:35;;;;;;;10.00;4.07;;;24.30;99.90;;;;;;5011491;28;20030;-86
2021/05/31 11:14:02;;;;;;;10.73;3.73;;;24.20;99.90;;;;;;5012601;28;20045;-84
2021/05/31 11:16:28;;;;;;;8.27;4.07;;;23.80;99.90;;;;;;5011339;28;20045;-81
2021/05/31 11:19:05;;;;;;;12.75;4.32;;;24.10;99.90;;;;;;5012334;28;20049;-83
2021/05/31 11:21:41;;;;;;;6.45;4.07;;;24.10;99.90;;;;;;5011406;28;20402;-83
2021/05/31 11:24:09;;;;;;;12.20;4.47;;;24.10;99.90;;;;;;5010791;28;20033;-82
2021/05/31 11:26:38;;;;;;;6.80;3.22;;;24.10;99.90;;;;;;5027676;28;20025;-83
2021/05/31 11:29:06;;;;;;;7.00;3.20;;;24.40;99.90;;;;;;5011192;28;20120;-83
2021/05/31 11:31:32;;;;;;;5.45;3.33;;;24.60;99.90;;;;;;5010975;28;20030;-84
2021/05/31 11:33:58;;;;;;;6.20;3.78;;;24.40;99.90;;;;;;5010703;28;20057;-83
2021/05/31 11:36:43;;;;;;;7.85;3.60;;;24.40;99.90;;;;;;5010989;28;20022;-84
2021/05/31 11:39:12;;;;;;;8.23;3.92;;;24.40;99.90;;;;;;5010749;28;20045;-86
2021/05/31 11:41:49;;;;;;;8.35;3.70;;;24.40;99.90;;;;;;5011309;28;20033;-85
2021/05/31 11:44:30;;;;;;;7.40;4.05;;;24.60;99.90;;;;;;5010805;28;20049;-86
2021/05/31 11:47:02;;;;;;;7.38;3.38;;;24.50;99.90;;;;;;5012215;28;20025;-85
2021/05/31 11:49:30;;;;;;;5.93;3.13;;;24.50;99.90;;;;;;5012211;28;20018;-86
2021/05/31 11:52:00;;;;;;;14.27;3.83;;;24.40;99.90;;;;;;5011230;28;20049;-85
2021/05/31 11:54:33;;;;;;;9.57;3.92;;;24.40;99.90;;;;;;5012057;28;20478;-86
2021/05/31 11:57:21;;;;;;;12.57;5.18;;;24.40;99.90;;;;;;5010763;28;20105;-85
2021/05/31 11:59:51;;;;;;;7.28;4.10;;;24.20;99.90;;;;;;5010159;28;20521;-85
2021/05/31 12:02:19;;;;;;;8.70;3.85;;;24.50;99.90;;;;;;5012133;28;20057;-85
2021/05/31 12:04:48;;;;;;;6.43;3.70;;;25.00;99.90;;;;;;5010561;28;20454;-85
2021/05/31 12:07:20;;;;;;;5.78;3.70;;;25.20;99.90;;;;;;5010407;28;20494;-86
2021/05/31 12:09:52;;;;;;;8.55;4.20;;;25.50;99.90;;;;;;5010549;28;20110;-85
2021/05/31 12:12:20;;;;;;;5.35;3.22;;;25.20;99.90;;;;;;5010851;28;20033;-87
2021/05/31 12:14:51;;;;;;;9.38;4.05;;;25.10;99.90;;;;;;5010115;28;20030;-84
2021/05/31 12:17:18;;;;;;;7.22;3.58;;;25.10;99.90;;;;;;5012696;28;20030;-82
2021/05/31 12:19:49;;;;;;;9.25;3.47;;;25.50;99.90;;;;;;5014377;28;20443;-82
2021/05/31 12:22:16;;;;;;;6.93;3.22;;;25.60;99.90;;;;;;5014884;28;20386;-82
2021/05/31 12:24:45;;;;;;;9.38;3.33;;;25.60;99.90;;;;;;5014409;28;20029;-83
2021/05/31 12:27:12;;;;;;;7.07;2.85;;;25.80;99.90;;;;;;5014453;28;20038;-83
2021/05/31 12:29:40;;;;;;;3.97;2.30;;;25.80;99.90;;;;;;5014392;28;20490;-83
2021/05/31 12:32:11;;;;;;;3.65;2.42;;;26.20;96.10;;;;;;5014005;28;21857;-82
2021/05/31 12:34:38;;;;;;;5.25;3.35;;;26.40;92.90;;;;;;5014046;28;20029;-83
2021/05/31 12:37:09;;;;;;;6.68;2.90;;;26.00;96.90;;;;;;5014213;28;20034;-83
2021/05/31 12:39:39;;;;;;;4.30;2.90;;;26.10;99.90;;;;;;5014079;28;20124;-82
2021/05/31 12:42:06;;;;;;;7.63;2.88;;;26.40;97.50;;;;;;5015585;28;20068;-82
2021/05/31 12:44:32;;;;;;;9.88;3.38;;;26.70;99.90;;;;;;5015231;28;20025;-82
2021/05/31 12:47:09;;;;;;;10.30;3.25;;;26.80;99.20;;;;;;5015268;28;20057;-83
2021/05/31 12:49:41;;;;;;;6.57;3.00;;;26.80;93.00;;;;;;5015102;28;20026;-82
2021/05/31 12:52:06;;;;;;;7.50;2.78;;;26.80;94.90;;;;;;5014150;28;20030;-82
2021/05/31 12:54:32;;;;;;;7.65;3.60;;;27.20;98.10;;;;;;5013837;28;20072;-83
2021/05/31 12:57:13;;;;;;;7.22;3.15;;;27.40;93.90;;;;;;5013756;28;20399;-83